Cornion — CQMH — position and weather

sailwx.info

Track history (hours):
 
Tides and Currents Weather Stations Pressure Air Temp Water Temp Dewpoint Dewpoint Depression Visibility Wind Speed Wind Dir Waves Ship Positions

Cornion

Last reported at 2017-Apr-26 21:11 UTC. Time now 2017-Apr-28 08:21 UTC.
Position N 51°47' W 006°58'.

Length 90 m; draft 4.2 m.

Type: Cargo ship. MMSI: 255803370.

Date/timePositionNaut miles runAvg speedWind from/ knotsBaromVisibWave heightAir tempDewpointWater temp
2017-Apr-26 21:11N 51°47' W 006°58'211.1
2017-Apr-26 21:00N 51°49' W 006°58'611.1
2017-Apr-26 20:30N 51°54' W 006°58'611.0
2017-Apr-26 20:00N 51°60' W 006°58'611.1
2017-Apr-26 19:30N 52°05' W 006°58'510.6
2017-Apr-26 19:01N 52°11' W 006°57'4 8.9
2017-Apr-26 18:30N 52°15' W 006°59'2 4.0
2017-Apr-26 17:59N 52°16' W 007°02'0 0.0
2017-Apr-26 17:29N 52°16' W 007°02'0 0.0
2017-Apr-26 17:00N 52°16' W 007°02'0 0.0
2017-Apr-26 16:29N 52°16' W 007°02'0 0.0
2017-Apr-26 16:00N 52°16' W 007°02'0 0.0
2017-Apr-26 15:29N 52°16' W 007°02'0 0.0
2017-Apr-26 14:56N 52°16' W 007°02'0 0.0
2017-Apr-26 13:59N 52°16' W 007°02'0 0.0
2017-Apr-26 13:29N 52°16' W 007°02'0 0.0
2017-Apr-26 12:59N 52°16' W 007°02'0 0.0
2017-Apr-26 12:29N 52°16' W 007°02'0 0.0
2017-Apr-26 11:53N 52°16' W 007°02'0 0.0
2017-Apr-26 11:29N 52°16' W 007°02'0 0.0
2017-Apr-26 10:59N 52°16' W 007°02'0 0.0
2017-Apr-26 10:29N 52°16' W 007°02'0 0.0
2017-Apr-26 09:59N 52°16' W 007°02'0 0.0
2017-Apr-26 09:29N 52°16' W 007°02'0 0.0
2017-Apr-26 08:59N 52°16' W 007°02'0 0.0
2017-Apr-26 08:29N 52°16' W 007°02'0 0.0
2017-Apr-26 08:00N 52°16' W 007°02'0 0.0
2017-Apr-26 07:29N 52°16' W 007°02'0 0.0
2017-Apr-26 06:59N 52°16' W 007°02'0 0.0
2017-Apr-26 06:29N 52°16' W 007°02'0 0.0
2017-Apr-26 05:59N 52°16' W 007°02'0 0.0
2017-Apr-26 05:29N 52°16' W 007°02'0 0.0
2017-Apr-26 04:59N 52°16' W 007°02'0 0.0
2017-Apr-26 04:29N 52°16' W 007°02'0 0.0
2017-Apr-26 03:59N 52°16' W 007°02'0 0.0
2017-Apr-26 03:29N 52°16' W 007°02'0 0.0
2017-Apr-26 02:59N 52°16' W 007°02'0 0.0
2017-Apr-26 02:29N 52°16' W 007°02'0 0.0
2017-Apr-26 01:59N 52°16' W 007°02'0 0.0
2017-Apr-26 01:29N 52°16' W 007°02'0 0.0
2017-Apr-26 00:56N 52°16' W 007°02'0 0.0
2017-Apr-26 00:29N 52°16' W 007°02'0 0.0
2017-Apr-25 23:59N 52°16' W 007°02'0 0.0
2017-Apr-25 23:29N 52°16' W 007°02'0 0.0
2017-Apr-25 23:00N 52°16' W 007°02'0 0.0
2017-Apr-25 22:29N 52°16' W 007°02'0 0.0
2017-Apr-25 21:59N 52°16' W 007°02'0 0.0
2017-Apr-25 21:30N 52°16' W 007°02'0 0.0
2017-Apr-25 21:00N 52°16' W 007°02'0 0.0
2017-Apr-25 20:29N 52°16' W 007°02'0 0.0
2017-Apr-25 19:59N 52°16' W 007°02'0 0.0
2017-Apr-25 19:29N 52°16' W 007°02'0 0.0
2017-Apr-25 18:59N 52°16' W 007°02'0 0.0
2017-Apr-25 18:23N 52°16' W 007°02'0 0.0
2017-Apr-25 17:59N 52°16' W 007°02'0 0.0
2017-Apr-25 17:29N 52°16' W 007°02'0 0.0
2017-Apr-25 16:56N 52°16' W 007°02'0 0.0
2017-Apr-25 16:29N 52°16' W 007°02'0 0.0
2017-Apr-25 15:59N 52°16' W 007°02'0 0.0
2017-Apr-25 15:23N 52°16' W 007°02'0 0.0
2017-Apr-25 14:59N 52°16' W 007°02'0 0.0
2017-Apr-25 13:47N 52°16' W 007°02'0 0.0
2017-Apr-25 13:30N 52°16' W 007°02'2 3.1
2017-Apr-25 13:00N 52°17' W 006°60'4 8.5
2017-Apr-25 12:30N 52°13' W 006°56'4 8.4
2017-Apr-25 12:00N 52°09' W 006°58'0 0.8
2017-Apr-25 11:28N 52°08' W 006°58'0 0.0
2017-Apr-25 10:53N 52°08' W 006°58'0 0.0
2017-Apr-25 10:23N 52°08' W 006°58'0 0.0
2017-Apr-25 09:47N 52°08' W 006°58'0 0.0
2017-Apr-25 09:29N 52°08' W 006°58'0 0.0
2017-Apr-25 09:00N 52°08' W 006°58'0 0.0
2017-Apr-25 08:30N 52°08' W 006°58'0 0.1
2017-Apr-25 08:00N 52°08' W 006°58'2 4.8
2017-Apr-25 07:30N 52°06' W 006°59'4 9.0
2017-Apr-25 07:00N 52°02' W 007°00'5 9.1
2017-Apr-25 06:30N 51°57' W 007°02'4 8.9
2017-Apr-25 06:00N 51°53' W 007°03'4 8.9
2017-Apr-25 05:30N 51°49' W 007°05'  
2017-Apr-22 03:38N 39°59' W 009°50'2010.1
2017-Apr-22 01:37N 39°39' W 009°50'710.0
2017-Apr-22 00:57N 39°32' W 009°51'610.4
2017-Apr-22 00:22N 39°26' W 009°51'410.2
2017-Apr-22 00:00N 39°22' W 009°51'510.1
2017-Apr-21 23:30N 39°17' W 009°51'510.2
2017-Apr-21 23:00N 39°12' W 009°51'5 9.8
2017-Apr-21 22:30N 39°07' W 009°51'510.4
2017-Apr-21 22:00N 39°02' W 009°51'510.0
2017-Apr-21 21:30N 38°57' W 009°52'510.1
2017-Apr-21 21:00N 38°52' W 009°52'510.0
2017-Apr-21 20:30N 38°47' W 009°51'510.0
2017-Apr-21 20:00N 38°42' W 009°51'510.1
2017-Apr-21 19:30N 38°37' W 009°50'510.0
2017-Apr-21 19:00N 38°32' W 009°48'5 9.6
2017-Apr-21 18:30N 38°27' W 009°47'5 9.5
2017-Apr-21 18:00N 38°23' W 009°45'5 9.4
2017-Apr-21 17:30N 38°18' W 009°44'5 9.4
2017-Apr-21 17:00N 38°14' W 009°43'1410.0
2017-Apr-21 15:37N 38°00' W 009°38'224 9.0
2017-Apr-20 14:33N 35°58' W 005°43'1 9.8
2017-Apr-20 14:28N 35°58' W 005°42'9 9.8
2017-Apr-20 13:30N 35°59' W 005°31'510.1
2017-Apr-20 13:00N 36°00' W 005°25'5 9.3
2017-Apr-20 12:30N 36°01' W 005°19'5 9.5
2017-Apr-20 11:59N 36°02' W 005°13'223 9.4
2017-Apr-19 12:14N 37°21' W 000°53'2 9.3
2017-Apr-19 11:59N 37°22' W 000°51'5 9.6
2017-Apr-19 11:30N 37°25' W 000°47'12 9.8
2017-Apr-19 10:14N 37°34' W 000°35'2 9.2
2017-Apr-19 09:59N 37°36' W 000°33'4 9.1
2017-Apr-19 09:30N 37°39' W 000°30'  
Track history (hours):
 
Tides and Currents Weather Stations Pressure Air Temp Water Temp Dewpoint Dewpoint Depression Visibility Wind Speed Wind Dir Waves Ship Positions

Cornion

Last reported at 2017-Apr-26 21:11 UTC. Time now 2017-Apr-28 08:21 UTC.
Position N 51°47' W 006°58'.

Length 90 m; draft 4.2 m.

Type: Cargo ship. MMSI: 255803370.

Date/timePositionNaut miles runAvg speedWind from/ knotsBaromVisibWave heightAir tempDewpointWater temp
2017-Apr-26 21:11N 51°47' W 006°58'211.1
2017-Apr-26 21:00N 51°49' W 006°58'611.1
2017-Apr-26 20:30N 51°54' W 006°58'611.0
2017-Apr-26 20:00N 51°60' W 006°58'611.1
2017-Apr-26 19:30N 52°05' W 006°58'510.6
2017-Apr-26 19:01N 52°11' W 006°57'4 8.9
2017-Apr-26 18:30N 52°15' W 006°59'2 4.0
2017-Apr-26 17:59N 52°16' W 007°02'0 0.0
2017-Apr-26 17:29N 52°16' W 007°02'0 0.0
2017-Apr-26 17:00N 52°16' W 007°02'0 0.0
2017-Apr-26 16:29N 52°16' W 007°02'0 0.0
2017-Apr-26 16:00N 52°16' W 007°02'0 0.0
2017-Apr-26 15:29N 52°16' W 007°02'0 0.0
2017-Apr-26 14:56N 52°16' W 007°02'0 0.0
2017-Apr-26 13:59N 52°16' W 007°02'0 0.0
2017-Apr-26 13:29N 52°16' W 007°02'0 0.0
2017-Apr-26 12:59N 52°16' W 007°02'0 0.0
2017-Apr-26 12:29N 52°16' W 007°02'0 0.0
2017-Apr-26 11:53N 52°16' W 007°02'0 0.0
2017-Apr-26 11:29N 52°16' W 007°02'0 0.0
2017-Apr-26 10:59N 52°16' W 007°02'0 0.0
2017-Apr-26 10:29N 52°16' W 007°02'0 0.0
2017-Apr-26 09:59N 52°16' W 007°02'0 0.0
2017-Apr-26 09:29N 52°16' W 007°02'0 0.0
2017-Apr-26 08:59N 52°16' W 007°02'0 0.0
2017-Apr-26 08:29N 52°16' W 007°02'0 0.0
2017-Apr-26 08:00N 52°16' W 007°02'0 0.0
2017-Apr-26 07:29N 52°16' W 007°02'0 0.0
2017-Apr-26 06:59N 52°16' W 007°02'0 0.0
2017-Apr-26 06:29N 52°16' W 007°02'0 0.0
2017-Apr-26 05:59N 52°16' W 007°02'0 0.0
2017-Apr-26 05:29N 52°16' W 007°02'0 0.0
2017-Apr-26 04:59N 52°16' W 007°02'0 0.0
2017-Apr-26 04:29N 52°16' W 007°02'0 0.0
2017-Apr-26 03:59N 52°16' W 007°02'0 0.0
2017-Apr-26 03:29N 52°16' W 007°02'0 0.0
2017-Apr-26 02:59N 52°16' W 007°02'0 0.0
2017-Apr-26 02:29N 52°16' W 007°02'0 0.0
2017-Apr-26 01:59N 52°16' W 007°02'0 0.0
2017-Apr-26 01:29N 52°16' W 007°02'0 0.0
2017-Apr-26 00:56N 52°16' W 007°02'0 0.0
2017-Apr-26 00:29N 52°16' W 007°02'0 0.0
2017-Apr-25 23:59N 52°16' W 007°02'0 0.0
2017-Apr-25 23:29N 52°16' W 007°02'0 0.0
2017-Apr-25 23:00N 52°16' W 007°02'0 0.0
2017-Apr-25 22:29N 52°16' W 007°02'0 0.0
2017-Apr-25 21:59N 52°16' W 007°02'0 0.0
2017-Apr-25 21:30N 52°16' W 007°02'0 0.0
2017-Apr-25 21:00N 52°16' W 007°02'0 0.0
2017-Apr-25 20:29N 52°16' W 007°02'0 0.0
2017-Apr-25 19:59N 52°16' W 007°02'0 0.0
2017-Apr-25 19:29N 52°16' W 007°02'0 0.0
2017-Apr-25 18:59N 52°16' W 007°02'0 0.0
2017-Apr-25 18:23N 52°16' W 007°02'0 0.0
2017-Apr-25 17:59N 52°16' W 007°02'0 0.0
2017-Apr-25 17:29N 52°16' W 007°02'0 0.0
2017-Apr-25 16:56N 52°16' W 007°02'0 0.0
2017-Apr-25 16:29N 52°16' W 007°02'0 0.0
2017-Apr-25 15:59N 52°16' W 007°02'0 0.0
2017-Apr-25 15:23N 52°16' W 007°02'0 0.0
2017-Apr-25 14:59N 52°16' W 007°02'0 0.0
2017-Apr-25 13:47N 52°16' W 007°02'0 0.0
2017-Apr-25 13:30N 52°16' W 007°02'2 3.1
2017-Apr-25 13:00N 52°17' W 006°60'4 8.5
2017-Apr-25 12:30N 52°13' W 006°56'4 8.4
2017-Apr-25 12:00N 52°09' W 006°58'0 0.8
2017-Apr-25 11:28N 52°08' W 006°58'0 0.0
2017-Apr-25 10:53N 52°08' W 006°58'0 0.0
2017-Apr-25 10:23N 52°08' W 006°58'0 0.0
2017-Apr-25 09:47N 52°08' W 006°58'0 0.0
2017-Apr-25 09:29N 52°08' W 006°58'0 0.0
2017-Apr-25 09:00N 52°08' W 006°58'0 0.0
2017-Apr-25 08:30N 52°08' W 006°58'0 0.1
2017-Apr-25 08:00N 52°08' W 006°58'2 4.8
2017-Apr-25 07:30N 52°06' W 006°59'4 9.0
2017-Apr-25 07:00N 52°02' W 007°00'5 9.1
2017-Apr-25 06:30N 51°57' W 007°02'4 8.9
2017-Apr-25 06:00N 51°53' W 007°03'4 8.9
2017-Apr-25 05:30N 51°49' W 007°05'  
2017-Apr-22 03:38N 39°59' W 009°50'2010.1
2017-Apr-22 01:37N 39°39' W 009°50'710.0
2017-Apr-22 00:57N 39°32' W 009°51'610.4
2017-Apr-22 00:22N 39°26' W 009°51'410.2
2017-Apr-22 00:00N 39°22' W 009°51'510.1
2017-Apr-21 23:30N 39°17' W 009°51'510.2
2017-Apr-21 23:00N 39°12' W 009°51'5 9.8
2017-Apr-21 22:30N 39°07' W 009°51'510.4
2017-Apr-21 22:00N 39°02' W 009°51'510.0
2017-Apr-21 21:30N 38°57' W 009°52'510.1
2017-Apr-21 21:00N 38°52' W 009°52'510.0
2017-Apr-21 20:30N 38°47' W 009°51'510.0
2017-Apr-21 20:00N 38°42' W 009°51'510.1
2017-Apr-21 19:30N 38°37' W 009°50'510.0
2017-Apr-21 19:00N 38°32' W 009°48'5 9.6
2017-Apr-21 18:30N 38°27' W 009°47'5 9.5
2017-Apr-21 18:00N 38°23' W 009°45'5 9.4
2017-Apr-21 17:30N 38°18' W 009°44'5 9.4
2017-Apr-21 17:00N 38°14' W 009°43'1410.0
2017-Apr-21 15:37N 38°00' W 009°38'224 9.0
2017-Apr-20 14:33N 35°58' W 005°43'1 9.8
2017-Apr-20 14:28N 35°58' W 005°42'9 9.8
2017-Apr-20 13:30N 35°59' W 005°31'510.1
2017-Apr-20 13:00N 36°00' W 005°25'5 9.3
2017-Apr-20 12:30N 36°01' W 005°19'5 9.5
2017-Apr-20 11:59N 36°02' W 005°13'223 9.4
2017-Apr-19 12:14N 37°21' W 000°53'2 9.3
2017-Apr-19 11:59N 37°22' W 000°51'5 9.6
2017-Apr-19 11:30N 37°25' W 000°47'12 9.8
2017-Apr-19 10:14N 37°34' W 000°35'2 9.2
2017-Apr-19 09:59N 37°36' W 000°33'4 9.1
2017-Apr-19 09:30N 37°39' W 000°30'  

Dump ship's entire track history